Time;durP1;ratioP1;P1;durP2;ratioP2;P2;SDS_P1;SDS_P2;PMS_P1;PMS_P2;Temp;Humidity;BMP_temperature;BMP_pressure;BME280_temperature;BME280_humidity;BME280_pressure;Samples;Min_cycle;Max_cycle;Signal;HPM_P1;HPM_P2
2023/11/13 00:00:19;;;;;;;12.53;11.30;;;5.00;99.90;;;5.31;100.00;97420.84;10427633;28;20248;-66
2023/11/13 00:05:22;;;;;;;11.83;10.73;;;4.90;99.90;;;5.38;100.00;97423.91;10431849;28;20280;-67
2023/11/13 00:10:26;;;;;;;10.80;9.67;;;5.00;99.90;;;5.47;100.00;97432.94;10433801;28;20232;-66
2023/11/13 00:15:30;;;;;;;11.07;9.80;;;5.00;99.90;;;5.53;100.00;97429.16;10438936;28;20298;-65
2023/11/13 00:20:33;;;;;;;10.80;9.67;;;5.10;99.90;;;5.62;100.00;97422.19;10434252;28;20618;-66
2023/11/13 00:25:37;;;;;;;9.67;8.67;;;5.20;99.90;;;5.64;100.00;97410.50;10437302;28;20228;-67
2023/11/13 00:30:41;;;;;;;10.77;9.53;;;5.20;99.90;;;5.71;100.00;97391.50;10437070;28;20224;-67
2023/11/13 00:35:45;;;;;;;9.60;8.60;;;5.20;99.90;;;5.68;100.00;97385.34;10440827;28;20233;-66
2023/11/13 00:40:48;;;;;;;10.03;8.83;;;5.20;99.90;;;5.81;100.00;97373.63;10439686;28;20240;-65
2023/11/13 00:45:53;;;;;;;10.40;9.30;;;5.20;99.90;;;5.71;100.00;97376.31;10439773;28;20245;-65
2023/11/13 00:50:56;;;;;;;9.57;8.63;;;5.20;99.90;;;5.81;100.00;97393.03;10447353;28;20674;-65
2023/11/13 00:55:59;;;;;;;9.70;8.70;;;5.30;99.90;;;5.62;100.00;97381.63;10436803;28;20233;-66
2023/11/13 01:01:05;;;;;;;12.23;9.17;;;5.10;99.90;;;5.48;100.00;97369.66;10432187;28;20233;-66
2023/11/13 01:06:15;;;;;;;9.10;8.20;;;5.00;99.90;;;5.51;100.00;97357.19;10442666;28;20229;-67
2023/11/13 01:11:18;;;;;;;9.57;8.67;;;5.10;99.90;;;5.58;100.00;97345.81;10438139;28;20231;-65
2023/11/13 01:16:23;;;;;;;9.03;8.13;;;5.10;99.90;;;5.58;100.00;97328.06;10434980;28;20600;-66
2023/11/13 01:21:26;;;;;;;10.80;9.70;;;5.10;99.90;;;5.59;100.00;97347.59;10435879;28;20597;-65
2023/11/13 01:26:30;;;;;;;9.43;8.43;;;5.10;99.90;;;5.65;100.00;97345.47;10436305;28;20233;-65
2023/11/13 01:31:35;;;;;;;10.17;9.17;;;5.20;99.90;;;5.71;100.00;97350.06;10423365;28;20232;-67
2023/11/13 01:36:38;;;;;;;11.20;10.07;;;5.30;99.90;;;5.83;100.00;97346.69;10438077;28;20221;-67
2023/11/13 01:41:43;;;;;;;9.77;8.77;;;5.40;99.90;;;5.85;100.00;97344.28;10435978;28;20221;-66
2023/11/13 01:46:49;;;;;;;9.00;8.10;;;5.40;99.90;;;5.88;100.00;97336.84;10427541;28;20225;-66
2023/11/13 01:51:54;;;;;;;9.70;8.70;;;5.40;99.90;;;6.04;100.00;97318.50;10435648;28;20669;-65
2023/11/13 01:57:00;;;;;;;9.97;8.97;;;5.50;99.90;;;5.88;100.00;97312.38;10431718;28;20724;-65
2023/11/13 02:02:05;;;;;;;10.30;8.40;;;5.40;99.90;;;5.83;100.00;97321.31;10431363;28;20226;-66
2023/11/13 02:07:08;;;;;;;9.00;8.17;;;5.30;99.90;;;5.77;100.00;97320.06;10435076;28;20221;-67
2023/11/13 02:12:12;;;;;;;9.77;8.33;;;5.30;99.90;;;5.78;100.00;97311.66;10435202;28;20233;-66
2023/11/13 02:17:17;;;;;;;9.57;8.67;;;5.30;99.90;;;5.95;100.00;97310.28;10433616;28;20227;-66
2023/11/13 02:22:20;;;;;;;8.63;7.73;;;5.40;99.90;;;5.88;100.00;97319.09;10436203;28;20599;-66
2023/11/13 02:27:25;;;;;;;9.93;8.10;;;5.40;99.90;;;5.84;100.00;97301.94;10438565;28;20294;-65
2023/11/13 02:32:28;;;;;;;8.40;7.60;;;5.40;99.90;;;5.81;100.00;97297.56;10446030;28;20620;-65
2023/11/13 02:37:31;;;;;;;9.53;8.37;;;5.40;99.90;;;5.80;100.00;97300.84;10445149;28;20576;-65
2023/11/13 02:42:35;;;;;;;9.47;7.97;;;5.40;99.90;;;5.87;100.00;97297.06;10442501;28;20604;-65
2023/11/13 02:47:39;;;;;;;7.90;7.10;;;5.50;99.90;;;6.03;100.00;97279.56;10443233;28;20225;-66
2023/11/13 02:52:42;;;;;;;7.13;6.53;;;5.50;99.90;;;5.98;100.00;97269.88;10445229;28;20303;-65
2023/11/13 02:57:47;;;;;;;7.10;6.40;;;5.50;99.90;;;5.99;100.00;97266.59;10441580;28;20225;-65
2023/11/13 03:02:51;;;;;;;7.10;6.40;;;5.50;99.90;;;5.85;100.00;97264.00;10445439;28;20239;-65
2023/11/13 03:07:55;;;;;;;6.13;5.53;;;5.40;99.90;;;5.86;100.00;97249.66;10440957;28;20313;-66
2023/11/13 03:13:00;;;;;;;4.90;4.50;;;5.50;99.90;;;5.92;100.00;97249.16;10437223;28;20236;-66
2023/11/13 03:18:03;;;;;;;6.30;5.70;;;5.50;99.90;;;6.01;100.00;97250.69;10438382;28;20689;-66
2023/11/13 03:23:07;;;;;;;5.17;4.67;;;5.60;99.90;;;6.03;100.00;97245.72;10426415;28;20705;-66
2023/11/13 03:28:11;;;;;;;5.57;5.07;;;5.60;99.90;;;6.08;100.00;97260.44;10434035;28;20231;-67
2023/11/13 03:33:15;;;;;;;4.60;4.20;;;5.70;99.90;;;6.25;100.00;97259.00;10440442;28;20225;-66
2023/11/13 03:38:18;;;;;;;5.40;5.00;;;5.70;99.90;;;6.30;100.00;97244.94;10434425;28;20229;-65
2023/11/13 03:43:23;;;;;;;5.53;5.03;;;5.80;99.90;;;6.19;100.00;97271.28;10433012;28;20240;-65
2023/11/13 03:48:26;;;;;;;6.17;5.57;;;5.70;99.90;;;6.23;100.00;97263.06;10433172;28;20701;-65
2023/11/13 03:53:29;;;;;;;6.20;5.60;;;5.70;99.90;;;6.37;100.00;97255.47;10430232;28;20238;-65
2023/11/13 03:58:34;;;;;;;6.20;5.70;;;5.90;99.90;;;6.39;100.00;97256.47;10428114;28;20239;-65
2023/11/13 04:03:37;;;;;;;6.57;5.97;;;5.90;99.90;;;6.29;100.00;97258.38;10429375;28;20233;-66
2023/11/13 04:08:40;;;;;;;6.03;5.43;;;5.80;99.90;;;6.24;100.00;97269.06;10429710;28;20225;-66
2023/11/13 04:13:45;;;;;;;5.80;5.23;;;5.80;99.90;;;6.36;100.00;97276.56;10429386;28;20712;-66
2023/11/13 04:18:49;;;;;;;5.20;4.77;;;5.90;99.90;;;6.46;100.00;97289.91;10441341;28;20225;-65
2023/11/13 04:23:52;;;;;;;5.80;5.30;;;6.00;99.90;;;6.54;100.00;97286.22;10441706;28;20237;-66
2023/11/13 04:28:57;;;;;;;4.87;4.47;;;6.10;99.90;;;6.60;100.00;97295.88;10441730;28;20231;-66
2023/11/13 04:34:00;;;;;;;4.47;4.07;;;6.20;99.90;;;6.69;100.00;97310.81;10438581;28;20225;-65
2023/11/13 04:39:09;;;;;;;4.93;4.53;;;6.20;99.90;;;6.71;100.00;97309.25;10438371;28;20217;-66
2023/11/13 04:44:13;;;;;;;3.97;3.70;;;6.20;99.90;;;6.72;100.00;97311.91;10434163;28;20587;-64
2023/11/13 04:49:16;;;;;;;3.87;3.57;;;6.30;99.90;;;6.80;100.00;97308.94;10435002;28;20696;-64
2023/11/13 04:54:20;;;;;;;4.57;4.17;;;6.30;99.90;;;6.81;100.00;97306.53;10431673;28;20225;-66
2023/11/13 04:59:24;;;;;;;4.97;4.57;;;6.40;99.90;;;6.89;100.00;97305.31;10431610;28;20250;-66
2023/11/13 05:04:27;;;;;;;5.17;4.40;;;6.50;99.90;;;7.01;100.00;97305.22;10433282;28;20742;-66
2023/11/13 05:09:31;;;;;;;4.53;4.07;;;6.50;99.90;;;7.08;100.00;97317.50;10429548;28;20236;-66
2023/11/13 05:14:40;;;;;;;5.07;4.40;;;6.60;99.90;;;7.13;100.00;97316.13;10425462;28;20343;-66
2023/11/13 05:19:43;;;;;;;3.90;3.60;;;6.70;99.90;;;7.27;100.00;97316.06;10428189;28;20225;-68
2023/11/13 05:24:46;;;;;;;4.23;3.83;;;6.80;99.90;;;7.40;100.00;97316.03;10444789;23;20494;-66
2023/11/13 05:29:52;;;;;;;4.37;4.00;;;6.90;99.90;;;7.56;100.00;97308.53;10439671;28;20696;-65
2023/11/13 05:34:55;;;;;;;4.43;4.00;;;7.10;99.90;;;7.68;100.00;97309.25;10440738;28;20221;-66
2023/11/13 05:39:59;;;;;;;4.03;3.73;;;7.30;99.90;;;7.87;100.00;97315.44;10434100;28;20236;-68
2023/11/13 05:45:04;;;;;;;4.27;3.87;;;7.40;99.90;;;8.08;100.00;97313.25;10442031;28;20685;-67
2023/11/13 05:50:09;;;;;;;6.20;4.90;;;7.70;99.90;;;8.28;100.00;97309.31;10441459;28;20239;-66
2023/11/13 05:55:13;;;;;;;7.47;5.60;;;8.00;99.90;;;8.45;100.00;97313.72;10436558;28;20237;-66
2023/11/13 06:00:18;;;;;;;17.17;12.40;;;8.00;99.90;;;8.32;100.00;97319.72;10443175;28;20228;-67
2023/11/13 06:05:21;;;;;;;10.67;9.13;;;7.80;99.90;;;8.20;100.00;97316.50;10444371;28;20227;-66
2023/11/13 06:10:25;;;;;;;12.67;10.17;;;7.70;99.90;;;8.24;100.00;97327.72;10442202;28;20232;-64
2023/11/13 06:15:31;;;;;;;13.97;11.60;;;7.70;99.90;;;8.26;100.00;97334.66;10443913;28;20227;-66
2023/11/13 06:20:34;;;;;;;10.80;9.17;;;7.70;99.90;;;8.16;100.00;97339.16;10447659;28;20247;-64
2023/11/13 06:25:38;;;;;;;11.20;5.60;;;7.70;99.90;;;8.46;100.00;97342.59;10442008;28;20235;-63
2023/11/13 06:30:43;;;;;;;9.97;4.53;;;8.10;99.90;;;8.65;100.00;97340.31;10446249;28;20716;-66
2023/11/13 06:35:48;;;;;;;9.47;4.70;;;8.30;99.90;;;8.95;100.00;97343.66;10445828;28;20607;-62
2023/11/13 06:40:51;;;;;;;6.93;5.07;;;8.50;99.90;;;8.94;100.00;97364.84;10441796;28;20233;-67
2023/11/13 06:45:56;;;;;;;10.13;5.55;;;8.50;99.90;;;9.07;100.00;97358.75;10447904;28;21010;-65
2023/11/13 06:50:59;;;;;;;7.82;5.93;;;8.60;99.90;;;9.06;100.00;97366.31;10444769;28;20229;-67
2023/11/13 06:56:02;;;;;;;9.32;6.68;;;8.50;99.90;;;8.97;100.00;97366.69;10447178;28;20323;-65
2023/11/13 07:01:07;;;;;;;13.38;7.30;;;8.40;99.90;;;8.95;100.00;97353.84;10443349;28;20218;-67
2023/11/13 07:06:12;;;;;;;12.10;7.82;;;8.50;99.90;;;9.01;100.00;97359.31;10436037;28;20248;-67
2023/11/13 07:11:18;;;;;;;12.63;6.97;;;8.50;99.90;;;9.06;100.00;97361.22;10440321;28;20713;-66
2023/11/13 07:16:22;;;;;;;12.70;7.32;;;8.60;99.90;;;9.16;100.00;97363.47;10442306;28;20238;-66
2023/11/13 07:21:26;;;;;;;9.38;6.43;;;8.60;99.90;;;9.22;100.00;97374.00;10446960;28;20233;-65
2023/11/13 07:26:29;;;;;;;11.93;6.57;;;8.80;99.90;;;9.28;100.00;97384.53;10443749;28;20232;-65
2023/11/13 07:31:33;;;;;;;9.48;5.70;;;8.80;99.90;;;9.35;100.00;97381.50;10445421;28;20236;-64
2023/11/13 07:36:37;;;;;;;12.63;5.63;;;8.90;99.90;;;9.41;100.00;97397.16;10443420;28;20228;-64
2023/11/13 07:41:40;;;;;;;12.95;6.35;;;8.90;99.90;;;9.35;100.00;97401.91;10442491;28;20239;-64
2023/11/13 07:46:45;;;;;;;12.55;8.75;;;8.90;99.90;;;9.41;100.00;97401.38;10447485;28;20712;-65
2023/11/13 07:51:48;;;;;;;7.57;6.68;;;8.80;99.90;;;9.41;100.00;97391.16;10443938;28;20321;-66
2023/11/13 07:56:51;;;;;;;13.93;11.95;;;8.90;99.90;;;9.40;100.00;97382.63;10443612;28;20224;-65
2023/11/13 08:01:56;;;;;;;25.02;20.25;;;8.90;99.90;;;9.44;100.00;97387.13;10443106;28;20321;-64
2023/11/13 08:06:59;;;;;;;23.73;18.70;;;8.90;99.90;;;9.52;100.00;97390.06;10448095;28;20319;-63
2023/11/13 08:12:15;;;;;;;26.45;21.58;;;9.00;99.90;;;9.55;100.00;97389.34;10448007;28;20604;-66
2023/11/13 08:17:20;;;;;;;27.00;20.77;;;9.00;99.90;;;9.62;100.00;97396.56;10446331;28;20689;-63
2023/11/13 08:22:23;;;;;;;17.27;14.93;;;9.10;99.90;;;9.66;100.00;97409.53;10443009;28;20229;-63
2023/11/13 08:27:26;;;;;;;19.58;8.63;;;9.20;99.90;;;9.78;100.00;97400.78;10445573;28;20233;-64
2023/11/13 08:32:31;;;;;;;16.65;7.13;;;9.20;99.90;;;9.78;100.00;97393.13;10444633;28;20332;-64
2023/11/13 08:37:35;;;;;;;17.10;7.88;;;9.30;99.90;;;9.84;100.00;97393.44;10438610;28;20283;-63
2023/11/13 08:42:40;;;;;;;15.13;6.20;;;9.30;99.90;;;10.05;100.00;97393.69;10443314;28;20252;-63
2023/11/13 08:47:47;;;;;;;13.70;6.05;;;9.50;99.90;;;9.88;100.00;97391.13;10437539;28;20235;-64
2023/11/13 08:52:53;;;;;;;11.10;4.75;;;9.30;99.90;;;9.93;100.00;97379.50;10435921;28;20236;-64
2023/11/13 08:57:58;;;;;;;7.90;4.13;;;9.30;99.90;;;9.80;100.00;97389.84;10439300;28;20760;-64
2023/11/13 09:03:02;;;;;;;11.80;4.95;;;9.20;99.90;;;9.81;100.00;97371.19;10443848;28;20738;-65
2023/11/13 09:08:08;;;;;;;9.27;4.05;;;9.20;99.90;;;9.73;100.00;97408.22;10435825;28;20237;-64
2023/11/13 09:13:11;;;;;;;10.32;4.32;;;9.20;99.90;;;9.84;100.00;97396.88;10440108;28;20225;-64
2023/11/13 09:18:17;;;;;;;13.20;5.18;;;9.30;99.90;;;10.02;100.00;97337.38;10443084;28;20233;-64
2023/11/13 09:23:20;;;;;;;7.35;4.07;;;9.40;99.90;;;9.84;100.00;97353.50;10434687;28;20705;-63
2023/11/13 09:28:24;;;;;;;12.18;7.05;;;9.30;99.90;;;9.69;100.00;97373.09;10436513;28;20232;-65
2023/11/13 09:33:28;;;;;;;13.57;7.20;;;9.20;99.90;;;10.01;100.00;97343.25;10439379;28;20708;-63
2023/11/13 09:38:32;;;;;;;11.50;5.43;;;9.40;99.90;;;9.78;100.00;97334.41;10441322;28;20221;-65
2023/11/13 09:43:36;;;;;;;7.03;5.82;;;9.20;99.90;;;9.67;100.00;97338.97;10429370;28;20319;-64
2023/11/13 09:48:48;;;;;;;10.80;5.97;;;9.20;99.90;;;9.69;100.00;97332.28;10435353;28;20225;-65
2023/11/13 09:53:52;;;;;;;9.38;5.28;;;9.20;99.90;;;9.72;100.00;97337.53;10438817;28;20232;-63
2023/11/13 09:58:58;;;;;;;5.65;4.03;;;9.20;99.90;;;9.71;100.00;97333.25;10440860;28;20224;-64
2023/11/13 10:04:04;;;;;;;8.65;4.18;;;9.20;99.90;;;9.75;100.00;97322.38;10438733;28;20235;-64
2023/11/13 10:09:09;;;;;;;10.57;5.85;;;9.20;99.90;;;9.78;100.00;97301.25;10442228;28;20623;-64
2023/11/13 10:14:13;;;;;;;8.75;5.63;;;9.30;99.90;;;9.69;100.00;97292.31;10440680;28;20605;-63
2023/11/13 10:19:18;;;;;;;8.07;5.53;;;9.20;99.90;;;9.84;100.00;97293.88;10439724;28;20217;-64
2023/11/13 10:24:24;;;;;;;8.60;5.93;;;9.30;99.90;;;9.79;100.00;97274.94;10436240;28;20298;-64
2023/11/13 10:29:43;;;;;;;8.35;5.30;;;9.30;99.90;;;9.77;100.00;97281.63;10433874;28;20700;-63
2023/11/13 10:34:49;;;;;;;7.15;4.30;;;9.30;99.90;;;9.70;100.00;97260.91;10440966;28;20227;-64
2023/11/13 10:39:52;;;;;;;7.30;5.00;;;9.30;99.90;;;9.78;100.00;97251.06;10437812;28;20229;-65
2023/11/13 10:44:58;;;;;;;7.05;4.47;;;9.30;99.90;;;9.90;100.00;97236.38;10443586;28;20224;-64
2023/11/13 10:50:11;;;;;;;8.50;4.95;;;9.40;99.90;;;9.91;100.00;97252.56;10444416;28;20232;-63
2023/11/13 10:55:16;;;;;;;9.10;4.90;;;9.50;99.90;;;9.88;100.00;97245.63;10446602;28;20225;-66
2023/11/13 11:00:20;;;;;;;6.80;5.28;;;9.50;99.90;;;10.05;100.00;97230.28;10452145;28;20259;-63
2023/11/13 11:05:27;;;;;;;29.17;17.90;;;9.50;99.90;;;9.95;100.00;97218.72;10447586;28;20703;-65
2023/11/13 11:10:30;;;;;;;12.45;9.60;;;9.60;99.90;;;10.12;100.00;97212.75;10445585;28;20692;-63
2023/11/13 11:16:15;;;;;;;9.43;6.57;;;9.70;99.90;;;10.30;100.00;97206.81;10447990;28;20229;-64
2023/11/13 11:21:40;;;;;;;9.48;6.35;;;9.90;99.90;;;10.37;100.00;97198.66;10441336;28;20231;-64
2023/11/13 11:26:52;;;;;;;7.88;5.85;;;9.90;99.90;;;10.40;100.00;97183.47;10453608;28;20668;-64
2023/11/13 11:31:56;;;;;;;11.63;5.72;;;10.00;99.90;;;10.53;100.00;97167.00;10450178;28;20228;-65
2023/11/13 11:37:03;;;;;;;12.00;8.75;;;10.10;99.90;;;10.58;100.00;97168.97;10445969;28;20221;-64
2023/11/13 11:42:18;;;;;;;8.55;6.40;;;10.10;99.90;;;10.65;100.00;97170.16;10449382;28;20229;-63
2023/11/13 11:47:25;;;;;;;11.65;9.15;;;10.20;99.90;;;10.88;100.00;97162.63;10444252;28;20319;-63
2023/11/13 11:52:51;;;;;;;16.48;8.10;;;10.30;99.90;;;10.76;100.00;97153.59;10446936;28;20290;-63
2023/11/13 11:57:55;;;;;;;9.13;6.05;;;10.30;99.90;;;10.87;100.00;97158.31;10443899;28;20221;-63
2023/11/13 12:02:59;;;;;;;12.07;6.05;;;10.50;99.90;;;11.07;100.00;97142.16;10445025;28;20239;-64
2023/11/13 12:08:07;;;;;;;13.07;5.50;;;10.70;99.90;;;11.28;100.00;97149.91;10447031;28;20243;-64
2023/11/13 12:13:18;;;;;;;10.00;6.00;;;10.90;99.90;;;11.36;100.00;97127.16;10447299;28;20233;-65
2023/11/13 12:18:22;;;;;;;11.90;5.93;;;11.00;99.90;;;11.45;100.00;97094.31;10440502;28;20315;-62
2023/11/13 12:23:30;;;;;;;10.73;6.45;;;11.10;99.90;;;11.60;100.00;97082.13;10447823;28;20255;-64
2023/11/13 12:28:33;;;;;;;12.93;7.60;;;11.20;99.90;;;11.71;100.00;97086.00;10444600;28;20653;-63
2023/11/13 12:33:36;;;;;;;17.35;10.13;;;11.20;99.90;;;11.75;100.00;97083.56;10445870;28;20643;-64
2023/11/13 12:38:44;;;;;;;12.02;8.52;;;11.20;99.90;;;11.67;100.00;97073.00;10441816;28;20233;-64
2023/11/13 12:43:48;;;;;;;13.68;9.05;;;11.20;99.90;;;11.69;100.00;97077.38;10444176;28;20229;-64
2023/11/13 12:48:53;;;;;;;15.77;9.77;;;11.20;99.90;;;11.79;100.00;97077.72;10446035;28;20302;-64
2023/11/13 12:53:59;;;;;;;13.77;8.50;;;11.30;99.90;;;11.83;100.00;97062.56;10446423;28;20233;-64
2023/11/13 12:59:03;;;;;;;13.98;5.80;;;11.30;99.90;;;12.07;100.00;97048.97;10442809;28;20217;-64
2023/11/13 13:04:07;;;;;;;8.48;5.35;;;11.50;99.90;;;12.35;100.00;97030.41;10448948;28;20715;-63
2023/11/13 13:09:13;;;;;;;9.38;4.80;;;11.80;99.90;;;12.50;100.00;97025.81;10443990;28;20696;-63
2023/11/13 13:14:17;;;;;;;6.55;4.50;;;12.00;99.90;;;12.67;100.00;97020.41;10437650;28;20234;-65
2023/11/13 13:19:21;;;;;;;5.72;4.28;;;12.30;99.90;;;12.77;100.00;97009.69;10447686;28;20221;-65
2023/11/13 13:24:26;;;;;;;4.50;3.95;;;12.50;99.90;;;12.83;100.00;96994.50;10445930;28;20232;-64
2023/11/13 13:29:31;;;;;;;6.18;4.20;;;12.70;99.90;;;12.93;100.00;96991.41;10443860;28;20307;-64
2023/11/13 13:34:34;;;;;;;5.88;3.90;;;12.70;99.90;;;13.00;100.00;96977.97;10436335;28;20243;-65
2023/11/13 13:39:41;;;;;;;4.18;3.75;;;12.80;99.90;;;13.17;100.00;96975.09;10439869;28;20265;-65
2023/11/13 13:44:44;;;;;;;6.13;4.07;;;12.90;99.90;;;13.13;100.00;96968.13;10434559;28;20253;-66
2023/11/13 13:49:51;;;;;;;7.13;3.83;;;12.90;99.90;;;13.16;100.00;96950.25;10431072;28;20303;-64
2023/11/13 13:54:58;;;;;;;4.22;3.53;;;13.00;99.90;;;13.14;100.00;96949.34;10434485;28;20237;-65
2023/11/13 14:00:01;;;;;;;5.03;3.40;;;13.00;99.90;;;13.16;100.00;96969.09;10439029;28;20248;-65
2023/11/13 14:05:06;;;;;;;5.47;3.50;;;13.00;99.90;;;13.21;100.00;96969.25;10442393;28;20771;-65
2023/11/13 14:10:12;;;;;;;4.68;2.97;;;13.00;99.90;;;13.18;100.00;96961.44;10439661;28;20237;-64
2023/11/13 14:15:16;;;;;;;3.65;3.30;;;13.00;99.90;;;13.29;100.00;96975.53;10441311;28;20252;-66
2023/11/13 14:20:21;;;;;;;4.75;3.35;;;13.00;99.90;;;13.21;100.00;96969.25;10438170;28;20294;-65
2023/11/13 14:25:28;;;;;;;7.20;3.63;;;13.00;99.90;;;13.28;100.00;96982.34;10440938;28;20225;-63
2023/11/13 14:30:32;;;;;;;3.30;3.00;;;13.10;99.90;;;13.29;100.00;96978.09;10448061;28;20294;-64
2023/11/13 14:35:35;;;;;;;5.72;4.10;;;13.00;99.90;;;13.20;100.00;96983.78;10444237;28;20233;-63
2023/11/13 14:40:40;;;;;;;4.47;3.53;;;12.90;99.90;;;13.40;100.00;96981.88;10444227;28;20719;-65
2023/11/13 14:45:44;;;;;;;5.70;2.70;;;13.00;99.90;;;13.32;100.00;96996.16;10454267;28;20233;-66
2023/11/13 14:50:47;;;;;;;5.88;4.43;;;12.90;99.90;;;13.21;100.00;96987.19;10445604;28;20225;-65
2023/11/13 14:55:52;;;;;;;4.25;3.40;;;12.80;99.90;;;13.17;100.00;96988.81;10447186;28;20217;-65
2023/11/13 15:00:55;;;;;;;5.68;3.05;;;12.80;99.90;;;13.32;100.00;97001.28;10453756;28;20225;-64
2023/11/13 15:05:59;;;;;;;7.47;5.18;;;12.90;99.90;;;13.29;100.00;96980.66;10443212;28;20228;-64
2023/11/13 15:11:10;;;;;;;5.47;3.20;;;13.00;99.90;;;13.34;100.00;96971.41;10449155;28;20704;-65
2023/11/13 15:16:15;;;;;;;4.45;3.38;;;12.90;99.90;;;13.27;100.00;96977.16;10452901;28;20221;-65
2023/11/13 15:21:19;;;;;;;4.68;3.50;;;12.90;99.90;;;13.24;100.00;96972.75;10443351;28;20580;-65
2023/11/13 15:26:23;;;;;;;5.32;3.55;;;12.90;99.90;;;13.07;100.00;96979.91;10448228;28;20279;-64
2023/11/13 15:31:26;;;;;;;6.45;5.18;;;12.70;99.90;;;13.01;100.00;96979.72;10449086;28;20691;-65
2023/11/13 15:36:30;;;;;;;5.13;4.20;;;12.70;99.90;;;12.98;100.00;96984.75;10442380;28;20358;-65
2023/11/13 15:41:34;;;;;;;4.15;3.75;;;12.60;99.90;;;12.92;100.00;96984.53;10445802;28;20233;-64
2023/11/13 15:46:39;;;;;;;5.75;4.00;;;12.60;99.90;;;12.99;100.00;96995.88;10440979;28;20700;-65
2023/11/13 15:51:42;;;;;;;4.50;3.97;;;12.60;99.90;;;12.97;100.00;96992.41;10441178;28;20225;-65
2023/11/13 15:56:47;;;;;;;4.03;3.72;;;12.50;99.90;;;13.02;100.00;96990.84;10439308;28;20225;-66
2023/11/13 16:01:50;;;;;;;5.80;5.30;;;12.50;99.90;;;12.96;100.00;96972.69;10440227;28;20233;-65
2023/11/13 16:07:06;;;;;;;5.35;4.38;;;12.50;99.90;;;13.00;100.00;96969.41;10438286;28;20619;-64
2023/11/13 16:12:11;;;;;;;4.75;3.35;;;12.50;99.90;;;13.21;100.00;96958.97;10440549;28;20579;-66
2023/11/13 16:17:15;;;;;;;7.68;7.07;;;12.70;99.90;;;13.14;100.00;96949.34;10433888;28;20236;-65
2023/11/13 16:22:19;;;;;;;5.15;4.38;;;12.70;99.90;;;13.20;100.00;96946.97;10437638;28;20740;-63
2023/11/13 16:27:24;;;;;;;5.10;4.60;;;12.70;99.90;;;13.20;100.00;96940.16;10441679;28;20637;-65
2023/11/13 16:32:27;;;;;;;4.57;4.18;;;12.80;99.90;;;13.14;100.00;96936.53;10437460;28;20255;-64
2023/11/13 16:37:31;;;;;;;7.07;5.28;;;12.80;99.90;;;13.21;100.00;96923.91;10439081;28;20271;-67
2023/11/13 16:42:36;;;;;;;4.38;3.67;;;12.80;99.90;;;13.33;100.00;96926.03;10435917;28;20224;-64
2023/11/13 16:47:42;;;;;;;4.05;3.75;;;12.90;99.90;;;13.36;100.00;96912.41;10442707;28;20233;-66
2023/11/13 16:52:46;;;;;;;3.80;3.40;;;13.10;99.90;;;13.40;100.00;96922.84;10440285;28;20228;-64
2023/11/13 16:57:50;;;;;;;4.13;2.70;;;13.20;99.90;;;13.41;100.00;96914.31;10437338;28;20739;-66
2023/11/13 17:02:54;;;;;;;3.63;2.90;;;13.20;99.90;;;13.28;100.00;96892.53;10434435;28;20239;-66
2023/11/13 17:07:57;;;;;;;4.15;2.80;;;13.10;99.90;;;13.25;100.00;96881.28;10436054;28;20240;-64
2023/11/13 17:13:01;;;;;;;4.22;3.83;;;13.00;99.90;;;13.23;100.00;96890.63;10436320;28;20221;-66
2023/11/13 17:18:05;;;;;;;4.60;3.67;;;12.90;99.90;;;13.21;100.00;96951.28;10438780;28;20221;-65
2023/11/13 17:23:09;;;;;;;4.88;4.28;;;12.90;99.90;;;13.30;100.00;96928.50;10433238;28;20233;-64
2023/11/13 17:28:14;;;;;;;4.82;3.40;;;12.90;99.90;;;13.22;100.00;96917.97;10429682;28;20226;-64
2023/11/13 17:33:18;;;;;;;3.38;3.10;;;12.90;99.90;;;13.35;100.00;96934.66;10436682;28;20308;-64
2023/11/13 17:38:23;;;;;;;3.90;3.17;;;13.00;99.90;;;13.47;100.00;96924.75;10435817;28;20708;-64
2023/11/13 17:43:27;;;;;;;6.93;6.18;;;13.10;99.90;;;13.55;100.00;96926.69;10437381;28;20303;-64
2023/11/13 17:48:31;;;;;;;5.10;4.70;;;13.20;99.90;;;13.71;100.00;96919.50;10439744;28;21006;-65
2023/11/13 17:53:35;;;;;;;2.85;2.65;;;13.50;99.90;;;13.65;100.00;96910.72;10432095;28;20243;-63
2023/11/13 17:58:39;;;;;;;7.45;5.85;;;13.60;99.90;;;13.69;100.00;96904.88;10433020;28;20244;-63
2023/11/13 18:03:44;;;;;;;7.63;6.90;;;13.60;99.90;;;13.71;100.00;96910.94;10434765;28;20225;-64
2023/11/13 18:08:47;;;;;;;9.93;7.32;;;13.60;99.90;;;13.73;100.00;96907.59;10437172;28;20221;-65
2023/11/13 18:13:52;;;;;;;28.60;26.05;;;13.70;99.90;;;13.77;100.00;96913.66;10444611;28;20710;-65
2023/11/13 18:18:55;;;;;;;4.00;3.70;;;13.90;99.90;;;13.76;100.00;96901.63;10438290;28;20225;-65
2023/11/13 18:23:58;;;;;;;2.67;2.45;;;13.70;99.90;;;13.77;100.00;96902.53;10432916;28;20279;-64
2023/11/13 18:29:04;;;;;;;1.92;1.80;;;13.80;99.90;;;13.82;100.00;96904.41;10443384;28;20617;-65
2023/11/13 18:34:07;;;;;;;1.90;1.80;;;13.70;99.90;;;13.83;100.00;96902.69;10441411;28;20771;-65
2023/11/13 18:39:12;;;;;;;4.10;3.40;;;13.90;99.90;;;13.87;100.00;96912.22;10439498;28;20756;-66
2023/11/13 18:44:16;;;;;;;2.42;2.22;;;13.90;99.90;;;13.81;100.00;96910.34;10441049;28;20611;-65
2023/11/13 18:49:20;;;;;;;2.40;2.20;;;13.90;99.90;;;13.82;100.00;96922.38;10443009;28;20311;-66
2023/11/13 18:54:23;;;;;;;1.98;1.88;;;13.90;99.90;;;13.85;100.00;96914.78;10434289;28;20241;-64
2023/11/13 18:59:28;;;;;;;3.33;2.10;;;14.00;99.90;;;13.83;100.00;96908.72;10436699;28;20647;-64
2023/11/13 19:04:31;;;;;;;1.85;1.75;;;13.90;99.90;;;13.91;100.00;96911.50;10439486;28;20229;-63
2023/11/13 19:09:34;;;;;;;1.85;1.50;;;14.00;99.90;;;13.92;100.00;96920.94;10434486;28;20256;-65
2023/11/13 19:14:39;;;;;;;1.70;1.60;;;14.00;99.90;;;13.95;100.00;96919.31;10442293;28;20228;-66
2023/11/13 19:19:42;;;;;;;2.28;1.90;;;14.00;99.90;;;14.02;100.00;96894.69;10441811;28;20248;-64
2023/11/13 19:24:47;;;;;;;46.08;30.05;;;14.10;99.90;;;14.10;100.00;96897.47;10436144;28;20248;-66
2023/11/13 19:29:51;;;;;;;2.20;2.10;;;14.00;99.90;;;14.08;100.00;96901.69;10439816;28;20224;-66
2023/11/13 19:34:54;;;;;;;2.38;2.28;;;14.10;99.90;;;14.06;100.00;96900.78;10443420;28;20473;-65
2023/11/13 19:39:58;;;;;;;2.20;2.00;;;14.00;99.90;;;14.09;100.00;96914.59;10438081;28;20340;-66
2023/11/13 19:45:04;;;;;;;1.85;1.67;;;14.00;99.90;;;14.12;100.00;96916.38;10441063;28;20684;-65
2023/11/13 19:50:08;;;;;;;2.25;1.80;;;14.10;99.90;;;14.11;100.00;96919.78;10435995;28;20403;-65
2023/11/13 19:55:12;;;;;;;2.22;2.13;;;14.20;99.90;;;14.18;100.00;96937.09;10439218;28;20703;-64
2023/11/13 20:00:20;;;;;;;1.80;1.70;;;14.30;99.90;;;14.20;100.00;96930.31;10442062;28;20225;-65
2023/11/13 20:05:23;;;;;;;1.58;1.48;;;14.20;99.90;;;14.26;100.00;96924.47;10436868;28;20233;-66
2023/11/13 20:10:28;;;;;;;2.00;1.90;;;14.40;99.90;;;14.35;100.00;96915.28;10436481;28;20235;-65
2023/11/13 20:15:33;;;;;;;1.83;1.73;;;14.30;99.90;;;14.39;100.00;96932.56;10439049;28;20237;-64
2023/11/13 20:20:37;;;;;;;1.73;1.63;;;14.40;99.90;;;14.41;100.00;96948.00;10435918;28;20225;-64
2023/11/13 20:25:41;;;;;;;2.25;1.80;;;14.40;99.90;;;14.33;100.00;96927.22;10440184;28;20609;-64
2023/11/13 20:30:45;;;;;;;1.90;1.80;;;14.30;99.90;;;14.33;100.00;96918.66;10441450;28;20228;-65
2023/11/13 20:35:50;;;;;;;3.25;2.97;;;14.30;99.90;;;14.34;100.00;96918.69;10438347;28;20229;-65
2023/11/13 20:40:53;;;;;;;1.85;1.75;;;14.30;99.90;;;14.33;100.00;96919.50;10437895;28;20229;-66
2023/11/13 20:45:58;;;;;;;2.95;2.75;;;14.40;99.90;;;14.35;100.00;96915.28;10438130;28;20576;-64
2023/11/13 20:51:03;;;;;;;2.72;1.88;;;14.40;99.90;;;14.45;100.00;96939.56;10438622;28;20279;-63
2023/11/13 20:56:08;;;;;;;2.47;2.38;;;14.50;99.90;;;14.44;100.00;96945.53;10427454;28;20229;-62
2023/11/13 21:01:13;;;;;;;1.80;1.70;;;14.50;99.90;;;14.47;100.00;96958.47;10434763;28;20459;-63